Worthing, Texas
Current Conditions -  °F | °C
As of 5:35 PM on Saturday 20 Dec 2014 (Local Time) from K66R Reporting Station
Overcast Overcast  
Wind Chill: 52°   Ceiling: 1100
Heat Index: 52°   Visibility: 10mi
Dew Point: 49°   Wind: 3mph
Humidity: 88%   Direction: 20°NNE
Pressure: 30.15"   Gusts: NA
Location:  29.3984°N, 96.8256°W
Report Text: K66R 202335Z AUTO 02003KT 10SM OVC011 11/09 A3015 RMK AO2 T01120093
Loading
Personal Weather Stations






























Interactive Weather Map New forecast layout! Learn more

10-Day Weather Forecast

Advertisements
Track Severe Weather on mobile